Time;durP1;ratioP1;P1;durP2;ratioP2;P2;SDS_P1;SDS_P2;PMS_P1;PMS_P2;Temp;Humidity;BMP_temperature;BMP_pressure;BME280_temperature;BME280_humidity;BME280_pressure;Samples;Min_cycle;Max_cycle;Signal;HPM_P1;HPM_P2
2023/08/25 00:00:28;;;;;;;;;;;26.10;59.20;;;;;;3076728;19;5428;-75
2023/08/25 00:01:29;;;;;;;;;;;26.10;59.20;;;;;;3075718;19;5351;-72
2023/08/25 00:02:29;;;;;;;;;;;26.20;59.30;;;;;;3077117;19;5445;-73
2023/08/25 00:03:31;;;;;;;;;;;26.20;59.20;;;;;;3076292;19;4840;-71
2023/08/25 00:04:32;;;;;;;;;;;26.10;59.20;;;;;;3076083;19;5244;-71
2023/08/25 00:05:38;;;;;;;;;;;26.10;59.30;;;;;;3076222;19;5409;-73
2023/08/25 00:06:39;;;;;;;;;;;26.10;59.20;;;;;;3076202;19;5481;-74
2023/08/25 00:07:39;;;;;;;;;;;26.10;59.30;;;;;;3076889;19;5446;-73
2023/08/25 00:08:40;;;;;;;;;;;26.10;59.30;;;;;;3076354;19;4686;-74
2023/08/25 00:09:43;;;;;;;;;;;26.10;59.30;;;;;;3075624;19;5245;-73
2023/08/25 00:10:43;;;;;;;;;;;26.10;59.30;;;;;;3076496;19;5353;-72
2023/08/25 00:11:44;;;;;;;;;;;26.10;59.20;;;;;;3076709;19;5566;-74
2023/08/25 00:12:46;;;;;;;;;;;26.10;59.20;;;;;;3076166;19;5206;-73
2023/08/25 00:13:47;;;;;;;;;;;26.10;59.20;;;;;;3076785;19;5368;-74
2023/08/25 00:14:48;;;;;;;;;;;26.10;59.20;;;;;;3074304;19;4845;-72
2023/08/25 00:15:49;;;;;;;;;;;26.10;59.30;;;;;;3067508;19;5267;-72
2023/08/25 00:16:49;;;;;;;;;;;26.10;59.20;;;;;;3066408;19;5246;-72
2023/08/25 00:17:50;;;;;;;;;;;26.10;59.20;;;;;;3065995;19;4617;-72
2023/08/25 00:18:51;;;;;;;;;;;26.10;59.10;;;;;;3067069;19;5338;-72
2023/08/25 00:19:52;;;;;;;;;;;26.10;59.10;;;;;;3066648;19;5808;-73
2023/08/25 00:20:53;;;;;;;;;;;26.10;59.30;;;;;;3065764;19;5382;-71
2023/08/25 00:21:53;;;;;;;;;;;26.10;59.20;;;;;;3066425;19;5395;-74
2023/08/25 00:22:54;;;;;;;;;;;26.50;59.40;;;;;;3065104;19;4598;-73
2023/08/25 00:23:54;;;;;;;;;;;26.00;59.10;;;;;;3065838;19;5302;-74
2023/08/25 00:24:56;;;;;;;;;;;26.10;59.80;;;;;;3065580;19;5208;-74
2023/08/25 00:25:57;;;;;;;;;;;26.10;59.20;;;;;;3064811;19;4813;-75
2023/08/25 00:26:58;;;;;;;;;;;26.10;59.00;;;;;;3066298;19;5423;-74
2023/08/25 00:27:59;;;;;;;;;;;26.50;59.30;;;;;;3064832;19;5238;-76
2023/08/25 00:29:00;;;;;;;;;;;26.10;59.00;;;;;;3065548;19;4655;-74
2023/08/25 00:30:01;;;;;;;;;;;26.00;58.90;;;;;;3065197;19;5335;-74
2023/08/25 00:31:02;;;;;;;;;;;26.30;59.30;;;;;;3063988;19;5203;-74
2023/08/25 00:32:03;;;;;;;;;;;26.00;59.00;;;;;;3064220;19;5353;-75
2023/08/25 00:33:03;;;;;;;;;;;26.00;58.60;;;;;;3064793;19;4757;-75
2023/08/25 00:34:04;;;;;;;;;;;26.00;58.90;;;;;;3064080;19;6737;-75
2023/08/25 00:35:05;;;;;;;;;;;26.10;59.10;;;;;;3064816;19;6279;-74
2023/08/25 00:36:06;;;;;;;;;;;26.00;58.90;;;;;;3063634;19;5393;-73
2023/08/25 00:37:07;;;;;;;;;;;26.00;59.00;;;;;;3064420;19;5134;-75
2023/08/25 00:38:07;;;;;;;;;;;26.00;59.10;;;;;;3064467;19;5219;-74
2023/08/25 00:39:08;;;;;;;;;;;26.00;59.00;;;;;;3061068;19;5412;-73
2023/08/25 00:40:10;;;;;;;;;;;26.00;58.80;;;;;;3064629;19;4659;-74
2023/08/25 00:41:10;;;;;;;;;;;26.00;59.00;;;;;;3062439;19;5408;-73
2023/08/25 00:42:11;;;;;;;;;;;26.00;59.70;;;;;;3064139;19;4595;-73
2023/08/25 00:43:12;;;;;;;;;;;26.00;59.10;;;;;;3064451;19;5392;-74
2023/08/25 00:44:12;;;;;;;;;;;26.00;59.10;;;;;;3063203;19;5017;-74
2023/08/25 00:45:13;;;;;;;;;;;26.00;59.00;;;;;;3064140;19;4755;-75
2023/08/25 00:46:14;;;;;;;;;;;26.00;59.00;;;;;;3062565;19;5294;-74
2023/08/25 00:47:15;;;;;;;;;;;26.00;59.10;;;;;;3063007;19;5096;-74
2023/08/25 00:48:15;;;;;;;;;;;26.10;59.20;;;;;;3063142;19;5668;-73
2023/08/25 00:49:16;;;;;;;;;;;25.90;59.10;;;;;;3063039;19;6332;-75
2023/08/25 00:50:17;;;;;;;;;;;26.10;59.20;;;;;;3062762;19;4640;-74
2023/08/25 00:51:17;;;;;;;;;;;26.00;59.00;;;;;;3063498;19;5128;-72
2023/08/25 00:52:18;;;;;;;;;;;26.00;59.10;;;;;;3063221;19;4729;-72
2023/08/25 00:53:19;;;;;;;;;;;26.00;59.00;;;;;;3062688;19;4670;-72
2023/08/25 00:54:21;;;;;;;;;;;26.00;58.90;;;;;;3063381;19;5309;-72
2023/08/25 00:55:21;;;;;;;;;;;26.00;59.00;;;;;;3063069;19;4714;-72
2023/08/25 00:56:22;;;;;;;;;;;26.00;59.00;;;;;;3063076;19;5595;-71
2023/08/25 00:57:22;;;;;;;;;;;26.00;59.00;;;;;;3062241;19;4621;-72
2023/08/25 00:58:23;;;;;;;;;;;26.00;59.00;;;;;;3062768;19;5873;-72
2023/08/25 00:59:24;;;;;;;;;;;26.00;59.10;;;;;;3063385;19;5183;-72
2023/08/25 01:00:26;;;;;;;;;;;25.90;59.00;;;;;;3063444;19;5287;-73
2023/08/25 01:01:27;;;;;;;;;;;26.00;59.00;;;;;;3063050;19;5472;-71
2023/08/25 01:02:27;;;;;;;;;;;25.90;59.00;;;;;;3062712;19;5239;-71
2023/08/25 01:03:31;;;;;;;;;;;26.00;58.90;;;;;;3057014;19;4933;-23
